Time;durP1;ratioP1;P1;durP2;ratioP2;P2;SDS_P1;SDS_P2;PMS_P1;PMS_P2;Temp;Humidity;BMP_temperature;BMP_pressure;BME280_temperature;BME280_humidity;BME280_pressure;Samples;Min_cycle;Max_cycle;Signal;HPM_P1;HPM_P2
2021/12/27 00:00:11;;;;;;;2.35;1.20;;;;;;;-6.46;60.85;101079.88;4806925;29;20214;-86
2021/12/27 00:02:37;;;;;;;1.77;1.20;;;;;;;-6.47;60.70;101080.69;4809585;29;20215;-87
2021/12/27 00:05:04;;;;;;;4.30;1.20;;;;;;;-6.49;61.03;101080.66;4809058;29;20180;-85
2021/12/27 00:07:29;;;;;;;1.25;1.08;;;;;;;-6.45;61.01;101085.16;4806803;29;20706;-93
2021/12/27 00:09:55;;;;;;;1.75;1.25;;;;;;;-6.46;60.59;101077.25;4793051;29;20298;-89
2021/12/27 00:12:20;;;;;;;1.50;1.35;;;;;;;-6.47;61.30;101080.69;4808075;29;20290;-89
2021/12/27 00:14:46;;;;;;;1.45;1.10;;;;;;;-6.51;61.36;101074.50;4809747;29;20179;-87
2021/12/27 00:17:12;;;;;;;1.73;1.15;;;;;;;-6.55;62.10;101080.44;4809632;29;20179;-87
2021/12/27 00:19:37;;;;;;;1.90;1.10;;;;;;;-6.64;62.32;101070.56;4807994;29;20203;-87
2021/12/27 00:22:03;;;;;;;2.40;1.38;;;;;;;-6.66;63.07;101069.63;4792256;29;20184;-89
2021/12/27 00:24:29;;;;;;;2.05;1.30;;;;;;;-6.64;63.31;101070.56;4793308;29;20604;-88
2021/12/27 00:26:55;;;;;;;2.97;1.38;;;;;;;-6.72;63.17;101056.38;4794839;29;20180;-87
2021/12/27 00:29:21;;;;;;;1.38;1.27;;;;;;;-6.64;63.64;101070.56;4799668;29;20194;-88
2021/12/27 00:31:47;;;;;;;1.35;1.10;;;;;;;-6.69;63.43;101061.72;4806678;29;20200;-89
2021/12/27 00:34:13;;;;;;;2.13;1.00;;;;;;;-6.65;63.76;101062.69;4796444;29;20347;-88
2021/12/27 00:36:38;;;;;;;1.45;1.30;;;;;;;-6.64;63.37;101054.06;4794881;29;20304;-88
2021/12/27 00:39:04;;;;;;;2.45;1.42;;;;;;;-6.71;63.63;101042.53;4810001;29;20187;-88
2021/12/27 00:41:29;;;;;;;1.77;1.15;;;;;;;-6.77;64.58;101037.09;4809969;29;20645;-90
2021/12/27 00:43:55;;;;;;;1.73;1.40;;;;;;;-6.89;65.01;101049.69;4809685;29;20200;-87
2021/12/27 00:46:20;;;;;;;2.50;1.35;;;;;;;-6.93;65.52;101032.16;4808569;29;20259;-88
2021/12/27 00:48:45;;;;;;;1.90;1.15;;;;;;;-6.96;65.34;101030.34;4853345;24;20303;-87
2021/12/27 00:51:11;;;;;;;1.77;1.20;;;;;;;-6.99;65.78;101031.97;4796530;29;20218;-86
2021/12/27 00:53:37;;;;;;;1.85;1.10;;;;;;;-6.92;65.77;101028.75;4797818;29;20172;-86
2021/12/27 00:56:02;;;;;;;1.70;1.45;;;;;;;-6.95;65.52;101021.72;4811634;29;20179;-87
2021/12/27 00:58:28;;;;;;;1.42;1.15;;;;;;;-6.98;65.39;101023.31;4810777;29;20195;-86
2021/12/27 01:00:53;;;;;;;2.67;1.60;;;;;;;-7.05;66.71;101030.03;4863667;24;20227;-88
2021/12/27 01:03:20;;;;;;;2.80;1.52;;;;;;;-7.08;66.51;101024.72;4867169;29;20316;-87
2021/12/27 01:05:46;;;;;;;1.95;1.35;;;;;;;-7.11;66.94;101021.97;4846427;29;20185;-88
2021/12/27 01:08:12;;;;;;;2.17;1.25;;;;;;;-7.22;67.08;101026.78;4848144;29;20178;-87
2021/12/27 01:13:26;;;;;;;2.28;1.67;;;;;;;-7.07;66.91;100998.72;4861029;29;20250;-88
2021/12/27 01:18:35;;;;;;;3.47;1.35;;;;;;;-7.03;66.96;101009.25;4859075;29;20190;-88
2021/12/27 01:21:03;;;;;;;2.55;1.70;;;;;;;-7.02;66.95;101014.50;4827933;29;20210;-87
2021/12/27 01:23:29;;;;;;;3.05;2.05;;;;;;;-7.15;67.29;101013.19;4847033;29;20291;-87
2021/12/27 01:25:54;;;;;;;3.00;1.45;;;;;;;-7.01;67.36;101029.31;4830543;29;20625;-88
2021/12/27 01:28:20;;;;;;;2.88;1.58;;;;;;;-6.99;66.86;101012.03;4829326;29;20194;-88
2021/12/27 01:30:49;;;;;;;4.30;1.95;;;;;;;-7.13;67.16;101003.69;4842360;29;20198;-90
2021/12/27 01:33:17;;;;;;;3.30;1.58;;;;;;;-7.04;67.55;101010.94;4843077;29;20171;-86
2021/12/27 01:35:43;;;;;;;2.63;1.65;;;;;;;-7.02;67.19;101011.88;4828171;29;20280;-87
2021/12/27 01:38:11;;;;;;;4.72;2.00;;;;;;;-6.96;67.39;101004.31;4829003;29;20175;-87
2021/12/27 01:40:37;;;;;;;4.50;2.35;;;;;;;-7.10;67.98;101009.03;4827351;29;20305;-87
2021/12/27 01:43:20;;;;;;;2.97;1.95;;;;;;;-7.10;68.29;101001.22;4826065;29;20210;-87
2021/12/27 01:45:52;;;;;;;3.67;1.77;;;;;;;-6.98;67.40;101008.56;4847861;29;20201;-88
2021/12/27 01:48:23;;;;;;;2.78;1.60;;;;;;;-7.01;68.03;100995.44;4843289;29;20183;-87
2021/12/27 01:50:53;;;;;;;2.75;1.80;;;;;;;-7.09;67.79;101002.97;4832555;29;20203;-87
2021/12/27 01:53:20;;;;;;;2.53;1.75;;;;;;;-7.02;68.52;100992.78;4830194;29;20173;-86
2021/12/27 01:55:47;;;;;;;4.35;2.42;;;;;;;-7.01;68.46;101003.25;4843861;29;20170;-88
2021/12/27 01:58:13;;;;;;;4.47;2.08;;;;;;;-6.99;68.36;100999.00;4843358;29;20258;-87
2021/12/27 02:00:41;;;;;;;3.88;2.20;;;;;;;-7.03;68.27;100984.09;4827085;29;20265;-87
2021/12/27 02:03:07;;;;;;;3.60;1.92;;;;;;;-7.03;69.09;100980.59;4823784;29;20248;-88
2021/12/27 02:05:33;;;;;;;3.63;1.88;;;;;;;-6.98;68.49;100969.50;4804972;29;20272;-87
2021/12/27 02:08:02;;;;;;;3.83;2.10;;;;;;;-7.02;68.79;100974.56;4808728;29;20271;-87
2021/12/27 02:10:27;;;;;;;3.85;2.35;;;;;;;-7.04;68.90;100966.69;4806132;29;20276;-87
2021/12/27 02:12:53;;;;;;;3.75;1.85;;;;;;;-7.07;69.20;100970.06;4808280;29;20799;-87
2021/12/27 02:15:18;;;;;;;4.03;2.20;;;;;;;-7.05;69.23;100964.94;4791503;29;20291;-87
2021/12/27 02:17:44;;;;;;;3.42;2.45;;;;;;;-7.07;69.47;100967.47;4806344;29;20184;-88
2021/12/27 02:20:19;;;;;;;3.60;2.42;;;;;;;-7.06;69.42;100964.03;4806447;29;20235;-88
2021/12/27 02:22:46;;;;;;;3.55;2.20;;;;;;;-7.06;69.26;100963.16;4805164;29;20207;-87
2021/12/27 02:25:13;;;;;;;4.65;2.38;;;;;;;-7.00;68.96;100957.28;4806065;29;20186;-88
2021/12/27 02:27:39;;;;;;;4.70;2.40;;;;;;;-7.03;69.73;100944.16;4810309;29;20188;-87
2021/12/27 02:30:13;;;;;;;2.60;2.00;;;;;;;-7.05;69.83;100944.97;4806303;29;20200;-88
2021/12/27 02:32:53;;;;;;;3.42;2.33;;;;;;;-7.01;69.87;100930.34;4822100;29;20187;-87
2021/12/27 02:35:23;;;;;;;5.60;2.40;;;;;;;-6.94;69.38;100934.06;4821619;29;20192;-91
2021/12/27 02:37:49;;;;;;;6.20;2.47;;;;;;;-6.85;68.29;100931.75;4806504;29;20564;-88
2021/12/27 02:40:16;;;;;;;4.35;2.55;;;;;;;-6.84;68.23;100930.94;4807750;29;20302;-87
2021/12/27 02:43:07;;;;;;;5.75;2.88;;;;;;;-6.91;67.58;100922.03;4807993;29;20216;-87
2021/12/27 02:45:36;;;;;;;3.67;2.20;;;;;;;-6.88;67.62;100916.91;4807304;29;20271;-87
2021/12/27 02:48:03;;;;;;;5.35;3.15;;;;;;;-6.89;67.56;100929.88;4805229;29;20187;-88
2021/12/27 02:50:34;;;;;;;6.10;3.13;;;;;;;-6.90;67.79;100926.38;4860585;29;20861;-89
2021/12/27 02:53:00;;;;;;;6.60;2.83;;;;;;;-6.94;68.35;100921.91;4827729;29;20195;-88
2021/12/27 02:55:25;;;;;;;5.20;2.80;;;;;;;-6.95;68.22;100912.34;4826439;29;20178;-89
2021/12/27 02:57:51;;;;;;;5.25;3.17;;;;;;;-6.89;68.18;100912.56;4828035;29;20247;-88
2021/12/27 03:00:21;;;;;;;4.60;2.88;;;;;;;-6.92;68.18;100914.16;4828368;29;20282;-89
2021/12/27 03:02:49;;;;;;;4.43;2.80;;;;;;;-6.89;68.14;100899.53;4842245;29;20994;-88
2021/12/27 03:05:17;;;;;;;5.18;2.65;;;;;;;-6.83;68.14;100898.81;4855779;29;20238;-88
2021/12/27 03:07:44;;;;;;;5.32;3.35;;;;;;;-6.81;67.76;100885.88;4836788;29;20677;-87
2021/12/27 03:10:12;;;;;;;5.57;2.90;;;;;;;-6.76;67.52;100898.19;4839738;29;20295;-87
2021/12/27 03:12:38;;;;;;;7.10;3.50;;;;;;;-6.75;68.25;100889.56;4823878;29;20259;-87
2021/12/27 03:15:09;;;;;;;6.30;3.17;;;;;;;-6.76;67.72;100897.31;4856580;29;20563;-87
2021/12/27 03:17:36;;;;;;;9.13;3.63;;;;;;;-6.70;67.90;100887.97;4808977;29;20191;-85
2021/12/27 03:20:03;;;;;;;6.32;3.55;;;;;;;-6.75;68.39;100878.25;4824540;29;20192;-88
2021/12/27 03:22:30;;;;;;;5.13;3.28;;;;;;;-6.80;69.03;100867.66;4827303;29;20199;-88
2021/12/27 03:24:55;;;;;;;4.95;3.13;;;;;;;-6.76;69.33;100868.66;4838652;29;20265;-87
2021/12/27 03:27:21;;;;;;;7.80;3.80;;;;;;;-6.74;69.72;100869.59;4824729;29;20188;-87
2021/12/27 03:29:50;;;;;;;8.80;4.30;;;;;;;-6.75;69.55;100867.84;4826644;29;20208;-87
2021/12/27 03:32:17;;;;;;;7.43;4.03;;;;;;;-6.76;70.04;100876.47;4842949;29;20180;-87
2021/12/27 03:34:53;;;;;;;8.48;4.88;;;;;;;-6.84;70.19;100874.50;4842879;29;20191;-88
2021/12/27 03:37:22;;;;;;;6.35;3.88;;;;;;;-6.84;71.01;100873.63;4842130;29;20636;-88
2021/12/27 03:39:48;;;;;;;10.45;4.13;;;;;;;-6.80;71.39;100878.06;4827083;29;20195;-87
2021/12/27 03:42:16;;;;;;;7.20;3.97;;;;;;;-6.77;70.98;100886.00;4811302;29;20212;-87
2021/12/27 03:44:43;;;;;;;10.10;4.72;;;;;;;-6.79;71.40;100886.81;4841858;29;20704;-88
2021/12/27 03:47:08;;;;;;;9.52;4.18;;;;;;;-6.73;71.24;100876.59;4846143;29;20190;-87
2021/12/27 03:49:34;;;;;;;7.45;3.83;;;;;;;-6.76;71.80;100877.34;4829421;29;20187;-88
2021/12/27 03:51:59;;;;;;;9.75;3.90;;;;;;;-6.65;71.07;100868.19;4844860;29;20180;-89
2021/12/27 03:54:25;;;;;;;9.00;4.90;;;;;;;-6.59;70.99;100866.59;4840806;29;20188;-87
2021/12/27 03:56:51;;;;;;;7.25;4.10;;;;;;;-6.47;70.72;100865.25;4842383;29;20237;-88
2021/12/27 04:01:45;;;;;;;10.35;4.85;;;;;;;-6.38;70.95;100853.31;4827918;29;20215;-87
2021/12/27 04:04:10;;;;;;;11.07;4.60;;;;;;;-6.31;70.21;100844.88;4814182;29;20654;-87
2021/12/27 04:06:36;;;;;;;8.15;4.75;;;;;;;-6.26;70.54;100836.34;4844320;29;20263;-88
2021/12/27 04:09:01;;;;;;;10.35;4.63;;;;;;;-6.20;70.59;100846.09;4848059;29;20606;-87
2021/12/27 04:11:31;;;;;;;8.32;4.38;;;;;;;-6.12;69.86;100826.34;4850899;29;20321;-87
2021/12/27 04:13:59;;;;;;;7.88;4.30;;;;;;;-6.07;69.75;100836.91;4816499;29;20626;-91
2021/12/27 04:16:28;;;;;;;7.75;4.43;;;;;;;-5.98;69.77;100834.56;4847657;29;20194;-88
2021/12/27 04:18:53;;;;;;;8.48;4.65;;;;;;;-5.94;69.42;100836.38;4833999;29;20228;-87
2021/12/27 04:21:19;;;;;;;10.48;5.30;;;;;;;-5.88;69.09;100840.88;4850980;29;20215;-90
2021/12/27 04:23:44;;;;;;;12.82;5.50;;;;;;;-5.86;68.83;100833.97;4847620;29;20227;-86
2021/12/27 04:26:10;;;;;;;9.18;4.45;;;;;;;-5.82;69.12;100830.63;4815098;29;20186;-86
2021/12/27 04:28:35;;;;;;;10.23;4.90;;;;;;;-5.81;68.94;100842.84;4845056;29;20248;-89
2021/12/27 04:31:02;;;;;;;10.40;5.25;;;;;;;-5.83;68.63;100823.66;4846600;29;20260;-85
2021/12/27 04:33:27;;;;;;;7.65;4.72;;;;;;;-5.80;68.35;100828.94;4831090;29;20187;-87
2021/12/27 04:35:53;;;;;;;9.20;4.43;;;;;;;-5.84;68.08;100827.06;4846263;29;20328;-87
2021/12/27 04:38:19;;;;;;;10.63;5.10;;;;;;;-5.89;68.28;100823.47;4828583;29;20194;-87
2021/12/27 04:40:49;;;;;;;9.23;4.90;;;;;;;-5.96;67.78;100814.63;4813871;29;20295;-84
2021/12/27 04:43:19;;;;;;;9.40;4.78;;;;;;;-5.99;67.95;100824.97;4828084;29;20207;-87
2021/12/27 04:45:46;;;;;;;9.30;4.68;;;;;;;-5.96;67.27;100819.84;4829781;29;20190;-87
2021/12/27 04:48:13;;;;;;;8.00;4.75;;;;;;;-6.01;66.81;100803.19;4840969;29;20255;-87
2021/12/27 04:50:39;;;;;;;10.50;5.05;;;;;;;-6.08;67.22;100804.72;4830965;29;20596;-87
2021/12/27 04:53:06;;;;;;;8.68;4.88;;;;;;;-6.05;67.05;100801.31;4860889;29;20202;-86
2021/12/27 04:55:34;;;;;;;9.88;5.47;;;;;;;-6.08;67.15;100811.66;4860907;29;20190;-87
2021/12/27 04:58:00;;;;;;;10.63;5.50;;;;;;;-6.06;67.18;100807.34;4831227;29;20179;-87
2021/12/27 05:00:27;;;;;;;10.82;5.30;;;;;;;-6.13;67.97;100806.31;4814288;29;20223;-86
2021/12/27 05:02:53;;;;;;;7.43;4.43;;;;;;;-6.07;68.01;100797.78;4829508;29;20209;-87
2021/12/27 05:05:19;;;;;;;11.15;4.97;;;;;;;-6.11;67.87;100788.09;4845811;29;20175;-87
2021/12/27 05:07:46;;;;;;;8.63;4.47;;;;;;;-6.13;68.17;100788.03;4846245;29;20191;-88
2021/12/27 05:10:12;;;;;;;10.98;5.13;;;;;;;-6.13;68.22;100787.16;4843932;29;20211;-88
2021/12/27 05:12:38;;;;;;;7.97;4.65;;;;;;;-6.18;68.81;100791.38;4845628;29;20178;-86
2021/12/27 05:15:04;;;;;;;10.00;5.65;;;;;;;-6.17;68.39;100785.31;4844328;29;20178;-88
2021/12/27 05:17:31;;;;;;;7.72;4.90;;;;;;;-6.11;68.41;100798.53;4859965;29;20534;-89
2021/12/27 05:19:57;;;;;;;7.07;4.03;;;;;;;-6.12;68.53;100784.63;4829661;29;20198;-87
2021/12/27 05:22:24;;;;;;;12.30;5.15;;;;;;;-6.07;67.89;100792.56;4845205;29;20182;-88
2021/12/27 05:24:50;;;;;;;8.32;4.25;;;;;;;-6.08;68.19;100780.34;4830365;29;20197;-88
2021/12/27 05:27:19;;;;;;;12.23;4.55;;;;;;;-5.95;67.50;100769.41;4846284;29;20175;-88
2021/12/27 05:29:44;;;;;;;7.00;4.47;;;;;;;-5.96;67.43;100767.66;4858380;29;20243;-88
2021/12/27 05:32:10;;;;;;;9.05;4.13;;;;;;;-5.98;67.35;100771.94;4844031;29;20538;-87
2021/12/27 05:34:36;;;;;;;10.07;5.38;;;;;;;-5.94;67.20;100772.94;4845950;29;20177;-88
2021/12/27 05:37:02;;;;;;;10.35;4.70;;;;;;;-5.96;67.52;100754.63;4826380;29;20726;-88
2021/12/27 05:39:27;;;;;;;10.15;5.20;;;;;;;-5.99;68.39;100748.44;4825562;29;20187;-88
2021/12/27 05:41:53;;;;;;;10.68;5.20;;;;;;;-5.93;67.88;100753.78;4825938;29;20708;-88
2021/12/27 05:44:19;;;;;;;11.43;5.32;;;;;;;-5.84;67.55;100744.50;4831024;29;20204;-87
2021/12/27 05:46:44;;;;;;;9.38;5.03;;;;;;;-5.88;68.02;100733.91;4831287;29;20555;-88
2021/12/27 05:49:10;;;;;;;9.98;4.50;;;;;;;-5.87;68.64;100740.91;4842203;29;20247;-87
2021/12/27 05:51:41;;;;;;;8.35;4.28;;;;;;;-5.87;68.65;100731.34;4827814;29;20195;-88
2021/12/27 05:54:07;;;;;;;9.90;5.13;;;;;;;-5.79;68.23;100731.56;4827492;29;20181;-88
2021/12/27 05:56:32;;;;;;;7.32;4.38;;;;;;;-5.74;67.94;100739.50;4843481;29;20492;-87
2021/12/27 05:58:59;;;;;;;7.57;4.75;;;;;;;-5.69;67.65;100735.28;4825503;29;20238;-87
2021/12/27 06:01:24;;;;;;;8.85;4.63;;;;;;;-5.66;67.78;100724.94;4813716;29;20207;-88
2021/12/27 06:03:50;;;;;;;11.43;5.65;;;;;;;-5.64;68.06;100720.63;4828733;29;20279;-88
2021/12/27 06:06:16;;;;;;;9.95;5.80;;;;;;;-5.60;67.77;100732.91;4844335;29;20208;-88
2021/12/27 06:08:42;;;;;;;11.30;5.53;;;;;;;-5.59;68.64;100735.56;4859675;29;20191;-88
2021/12/27 06:11:08;;;;;;;9.02;5.00;;;;;;;-5.60;68.75;100728.59;4840565;29;20289;-87
2021/12/27 06:13:33;;;;;;;10.95;5.50;;;;;;;-5.55;68.72;100728.72;4825127;29;20636;-87
2021/12/27 06:15:59;;;;;;;10.00;5.65;;;;;;;-5.55;69.46;100714.75;4827026;29;20270;-87
2021/12/27 06:18:24;;;;;;;10.55;5.07;;;;;;;-5.56;69.33;100719.09;4826310;29;20194;-87
2021/12/27 06:20:51;;;;;;;10.30;5.07;;;;;;;-5.52;69.38;100728.78;4825714;29;20286;-86
2021/12/27 06:23:16;;;;;;;12.60;6.32;;;;;;;-5.52;70.05;100723.56;4839647;29;20210;-87
2021/12/27 06:25:44;;;;;;;10.57;4.80;;;;;;;-5.43;70.29;100730.75;4822462;29;20180;-86
2021/12/27 06:28:11;;;;;;;9.23;5.38;;;;;;;-5.44;70.16;100723.75;4824271;29;20730;-87
2021/12/27 06:30:36;;;;;;;11.57;5.60;;;;;;;-5.44;70.73;100729.88;4832651;29;20298;-86
2021/12/27 06:33:02;;;;;;;12.15;5.60;;;;;;;-5.38;70.54;100730.03;4818238;29;20282;-86
2021/12/27 06:35:28;;;;;;;9.63;5.97;;;;;;;-5.35;70.85;100729.19;4848382;29;20255;-87
2021/12/27 06:37:53;;;;;;;11.52;6.43;;;;;;;-5.41;70.47;100724.69;4833711;29;20187;-87
2021/12/27 06:40:19;;;;;;;11.40;6.03;;;;;;;-5.41;70.69;100731.66;4820523;29;20197;-86
2021/12/27 06:42:46;;;;;;;11.20;5.60;;;;;;;-5.40;70.31;100728.19;4834555;29;20384;-86
2021/12/27 06:45:13;;;;;;;10.82;6.20;;;;;;;-5.39;70.84;100728.25;4837088;29;20552;-86
2021/12/27 06:47:39;;;;;;;12.32;6.47;;;;;;;-5.40;70.72;100728.19;4821696;29;20164;-86
2021/12/27 06:50:08;;;;;;;9.52;5.65;;;;;;;-5.34;71.43;100719.63;4821684;29;20286;-86
2021/12/27 06:52:33;;;;;;;12.27;6.00;;;;;;;-5.40;71.72;100728.19;4822859;29;20179;-87
2021/12/27 06:54:59;;;;;;;13.75;6.97;;;;;;;-5.34;71.96;100717.91;4822622;29;20727;-86
2021/12/27 06:57:24;;;;;;;11.60;6.45;;;;;;;-5.35;71.54;100725.72;4839113;24;20247;-86
2021/12/27 06:59:51;;;;;;;13.60;6.90;;;;;;;-5.32;70.91;100720.56;4828687;29;20171;-86
2021/12/27 07:02:16;;;;;;;12.52;6.47;;;;;;;-5.36;72.04;100731.78;4841682;29;20211;-87
2021/12/27 07:04:42;;;;;;;13.77;6.60;;;;;;;-5.38;71.49;100718.66;4807889;29;20568;-87
2021/12/27 07:07:07;;;;;;;13.18;6.35;;;;;;;-5.42;71.86;100716.84;4794251;24;20809;-88
2021/12/27 07:09:36;;;;;;;11.70;6.32;;;;;;;-5.42;72.03;100730.78;4796873;29;20198;-88
2021/12/27 07:12:02;;;;;;;11.80;6.38;;;;;;;-5.43;72.04;100710.72;4796669;29;20180;-88
2021/12/27 07:14:28;;;;;;;13.75;6.95;;;;;;;-5.41;72.06;100716.00;4791492;29;20199;-88
2021/12/27 07:16:53;;;;;;;12.02;6.07;;;;;;;-5.41;72.36;100706.44;4791833;29;20176;-89
2021/12/27 07:19:19;;;;;;;12.73;6.28;;;;;;;-5.42;72.58;100707.28;4791406;29;20180;-88
2021/12/27 07:21:44;;;;;;;12.52;6.97;;;;;;;-5.41;73.14;100701.22;4794455;29;20287;-87
2021/12/27 07:24:10;;;;;;;14.35;7.40;;;;;;;-5.41;73.26;100706.44;4775827;29;20204;-86
2021/12/27 07:26:47;;;;;;;13.75;6.53;;;;;;;-5.42;74.03;100711.63;4789129;29;20269;-87
2021/12/27 07:29:12;;;;;;;12.60;6.72;;;;;;;-5.46;74.12;100701.97;4804948;29;20537;-87
2021/12/27 07:31:37;;;;;;;13.93;7.05;;;;;;;-5.46;74.60;100702.84;4789681;29;20208;-87
2021/12/27 07:34:03;;;;;;;15.48;7.60;;;;;;;-5.42;74.77;100711.63;4775600;29;20229;-88
2021/12/27 07:36:32;;;;;;;14.02;7.05;;;;;;;-5.43;75.09;100700.28;4790540;29;20184;-87
2021/12/27 07:39:00;;;;;;;13.48;7.72;;;;;;;-5.42;75.54;100709.91;4790820;29;20240;-87
2021/12/27 07:41:26;;;;;;;15.15;7.57;;;;;;;-5.44;75.24;100703.75;4791416;29;20535;-87
2021/12/27 07:43:51;;;;;;;13.88;8.00;;;;;;;-5.46;75.64;100702.84;4808225;29;20204;-87
2021/12/27 07:46:16;;;;;;;14.07;7.50;;;;;;;-5.45;76.17;100707.19;4790549;29;20190;-87
2021/12/27 07:48:42;;;;;;;15.88;7.65;;;;;;;-5.47;75.84;100697.56;4790971;29;20231;-87
2021/12/27 07:51:07;;;;;;;16.95;7.80;;;;;;;-5.45;75.66;100701.09;4790563;29;20287;-87
2021/12/27 07:53:33;;;;;;;13.63;7.72;;;;;;;-5.43;75.72;100700.28;4806840;29;20526;-87
2021/12/27 07:55:58;;;;;;;15.32;7.75;;;;;;;-5.36;76.01;100693.47;4806444;29;20172;-87
2021/12/27 07:58:23;;;;;;;15.18;8.07;;;;;;;-5.36;75.54;100703.03;4790942;29;20301;-87
2021/12/27 08:00:50;;;;;;;13.68;7.78;;;;;;;-5.37;75.75;100696.94;4790999;29;20787;-86
2021/12/27 08:03:20;;;;;;;16.67;8.48;;;;;;;-5.40;75.74;100700.38;4789269;29;20200;-87
2021/12/27 08:05:46;;;;;;;15.43;8.00;;;;;;;-5.38;76.06;100698.69;4774935;29;20191;-86
2021/12/27 08:08:12;;;;;;;17.33;9.02;;;;;;;-5.35;76.10;100697.00;4790053;29;20196;-88
2021/12/27 08:10:38;;;;;;;17.17;8.63;;;;;;;-5.31;76.01;100683.16;4791640;29;20200;-89
2021/12/27 08:13:03;;;;;;;17.58;8.95;;;;;;;-5.33;75.96;100683.13;4790981;29;20241;-86
2021/12/27 08:15:29;;;;;;;17.27;8.73;;;;;;;-5.33;76.30;100684.88;4789762;29;20180;-86
2021/12/27 08:17:54;;;;;;;18.60;8.70;;;;;;;-5.31;76.51;100681.44;4805942;29;20184;-87
2021/12/27 08:20:20;;;;;;;15.70;8.77;;;;;;;-5.23;76.60;100692.06;4808426;29;20284;-88
2021/12/27 08:22:45;;;;;;;16.10;9.38;;;;;;;-5.20;76.86;100697.38;4808845;29;20598;-88
2021/12/27 08:25:11;;;;;;;20.10;9.98;;;;;;;-5.24;76.25;100690.31;4793407;29;20275;-87
2021/12/27 08:27:39;;;;;;;19.35;9.30;;;;;;;-5.21;76.58;100677.28;4807372;29;20773;-87
2021/12/27 08:30:06;;;;;;;18.30;9.57;;;;;;;-5.18;76.34;100682.63;4790998;29;20196;-88
2021/12/27 08:32:39;;;;;;;18.23;9.27;;;;;;;-5.21;76.65;100677.28;4805654;29;20271;-87
2021/12/27 08:35:07;;;;;;;16.70;9.43;;;;;;;-5.21;76.59;100691.22;4806693;29;20564;-85
2021/12/27 08:37:33;;;;;;;18.55;8.95;;;;;;;-5.21;76.83;100686.00;4807064;29;20182;-85
2021/12/27 08:39:59;;;;;;;19.10;10.50;;;;;;;-5.15;76.28;100694.84;4805933;29;20212;-86
2021/12/27 08:42:25;;;;;;;18.17;9.60;;;;;;;-5.15;76.88;100682.66;4790649;29;20187;-85
2021/12/27 08:44:51;;;;;;;19.20;9.93;;;;;;;-5.11;77.21;100681.91;4807128;29;20280;-86
2021/12/27 08:47:17;;;;;;;19.38;10.88;;;;;;;-5.09;77.46;100674.09;4807690;29;20223;-86
2021/12/27 08:49:43;;;;;;;19.00;9.45;;;;;;;-5.02;77.33;100673.38;4790647;29;20176;-88
2021/12/27 08:52:09;;;;;;;22.15;10.15;;;;;;;-5.02;77.51;100681.22;4790268;29;20634;-85
2021/12/27 08:54:35;;;;;;;18.42;9.65;;;;;;;-5.00;77.39;100669.09;4806701;29;20168;-85
2021/12/27 08:57:03;;;;;;;17.95;9.90;;;;;;;-5.01;78.00;100678.66;4805228;29;20220;-86
2021/12/27 08:59:28;;;;;;;19.45;9.70;;;;;;;-4.99;78.55;100670.81;4805245;29;20279;-86
2021/12/27 09:01:54;;;;;;;25.15;10.35;;;;;;;-4.98;78.57;100670.00;4789820;29;20823;-85
2021/12/27 09:04:19;;;;;;;20.48;10.55;;;;;;;-4.97;78.95;100672.63;4789521;29;20229;-86
2021/12/27 09:06:45;;;;;;;21.75;10.35;;;;;;;-4.96;78.83;100678.75;4805560;29;20187;-87
2021/12/27 09:09:10;;;;;;;20.95;10.60;;;;;;;-4.89;79.16;100671.94;4788790;29;20275;-88
2021/12/27 09:11:36;;;;;;;23.70;11.02;;;;;;;-4.84;79.61;100672.91;4789522;29;20303;-88
2021/12/27 09:14:01;;;;;;;22.45;10.85;;;;;;;-4.90;78.91;100684.09;4792348;29;20178;-86
2021/12/27 09:16:27;;;;;;;24.70;12.10;;;;;;;-4.87;78.97;100676.34;4788985;29;20180;-86
2021/12/27 09:18:52;;;;;;;22.05;11.63;;;;;;;-4.85;79.54;100681.59;4789267;29;20248;-86
2021/12/27 09:21:18;;;;;;;25.30;11.82;;;;;;;-4.81;79.49;100670.34;4788630;29;20204;-86
2021/12/27 09:23:43;;;;;;;21.75;11.88;;;;;;;-4.76;79.91;100674.84;4787651;29;20265;-86
2021/12/27 09:26:09;;;;;;;23.20;11.32;;;;;;;-4.72;80.92;100667.03;4788392;29;20188;-86
2021/12/27 09:28:34;;;;;;;22.00;12.05;;;;;;;-4.71;80.66;100676.66;4789197;29;20180;-87
2021/12/27 09:31:01;;;;;;;20.63;11.32;;;;;;;-4.67;81.25;100674.16;4789102;29;20212;-89
2021/12/27 09:33:27;;;;;;;25.85;12.02;;;;;;;-4.69;81.57;100675.84;4788895;29;20184;-87
2021/12/27 09:35:53;;;;;;;23.50;11.25;;;;;;;-4.68;81.65;100682.84;4788789;29;20252;-87
2021/12/27 09:38:19;;;;;;;20.48;11.25;;;;;;;-4.66;81.54;100670.66;4813478;24;20383;-86
2021/12/27 09:40:45;;;;;;;24.58;13.38;;;;;;;-4.67;81.91;100655.84;4824117;29;20752;-85
2021/12/27 09:43:11;;;;;;;21.52;12.38;;;;;;;-4.61;82.00;100666.44;4820461;29;20595;-85
2021/12/27 09:45:37;;;;;;;23.13;12.82;;;;;;;-4.53;82.00;100653.50;4807060;29;20190;-87
2021/12/27 09:48:03;;;;;;;22.88;12.80;;;;;;;-4.56;82.36;100662.16;4820875;29;20255;-86
2021/12/27 09:50:43;;;;;;;25.25;13.57;;;;;;;-4.53;82.50;100648.28;4805680;29;20751;-85
2021/12/27 09:53:08;;;;;;;24.33;12.57;;;;;;;-4.47;83.40;100645.78;4822243;29;20259;-87
2021/12/27 09:55:35;;;;;;;24.33;12.70;;;;;;;-4.45;82.90;100648.44;4821426;29;20221;-86
2021/12/27 09:58:00;;;;;;;24.08;12.77;;;;;;;-4.44;83.08;100645.88;4807171;29;20203;-87
2021/12/27 10:00:27;;;;;;;25.52;13.82;;;;;;;-4.46;83.36;100651.88;4838015;29;20199;-86
2021/12/27 10:02:55;;;;;;;23.65;13.90;;;;;;;-4.44;83.42;100651.09;4807169;29;20186;-86
2021/12/27 10:05:27;;;;;;;28.23;14.20;;;;;;;-4.42;82.99;100631.06;4805016;29;20686;-88
2021/12/27 10:07:52;;;;;;;23.85;13.93;;;;;;;-4.40;82.98;100636.34;4821507;29;20247;-85
2021/12/27 10:10:18;;;;;;;25.55;15.02;;;;;;;-4.38;82.98;100626.78;4807055;29;20748;-86
2021/12/27 10:12:45;;;;;;;25.63;13.23;;;;;;;-4.30;83.14;100616.47;4820610;29;20837;-86
2021/12/27 10:15:17;;;;;;;27.33;14.27;;;;;;;-4.47;83.21;100619.66;4836285;29;20230;-86
2021/12/27 10:17:43;;;;;;;26.70;13.93;;;;;;;-4.44;83.22;100605.75;4835174;29;20186;-86
2021/12/27 10:20:12;;;;;;;27.98;14.45;;;;;;;-4.38;83.53;100604.13;4805760;29;20561;-85
2021/12/27 10:22:52;;;;;;;27.02;13.85;;;;;;;-4.29;83.67;100611.25;4785756;30;20252;-86
2021/12/27 10:25:23;;;;;;;26.08;14.52;;;;;;;-4.29;83.88;100618.22;4800198;29;20318;-86
2021/12/27 10:27:50;;;;;;;27.70;15.32;;;;;;;-4.29;84.01;100613.00;4800845;29;20196;-88
2021/12/27 10:30:22;;;;;;;32.78;15.55;;;;;;;-4.30;83.46;100613.88;4802123;29;20637;-88
2021/12/27 10:33:13;;;;;;;28.02;13.65;;;;;;;-4.18;83.86;100614.94;4786904;30;20493;-88
2021/12/27 10:35:44;;;;;;;28.25;15.00;;;;;;;-4.14;83.64;100603.69;4780381;29;20208;-88
2021/12/27 10:38:23;;;;;;;26.50;14.55;;;;;;;-4.08;83.81;100609.91;4822482;29;20275;-89
2021/12/27 10:40:59;;;;;;;27.15;15.50;;;;;;;-4.20;83.28;100598.38;4824537;29;20294;-88
2021/12/27 10:43:38;;;;;;;32.03;16.27;;;;;;;-4.16;83.08;100601.91;4825723;29;20207;-88
2021/12/27 10:46:11;;;;;;;30.17;15.73;;;;;;;-4.07;83.44;100607.28;4825679;29;20199;-88
2021/12/27 10:48:39;;;;;;;27.52;15.15;;;;;;;-4.10;83.13;100603.75;4808576;29;20200;-88
2021/12/27 10:51:05;;;;;;;26.88;15.25;;;;;;;-4.13;83.38;100596.75;4822394;29;20613;-89
2021/12/27 10:53:45;;;;;;;24.70;14.43;;;;;;;-4.04;83.31;100607.38;4807004;29;20183;-87
2021/12/27 10:56:11;;;;;;;25.55;15.05;;;;;;;-4.05;83.46;100604.72;4823026;29;20172;-88
2021/12/27 10:58:38;;;;;;;28.05;15.27;;;;;;;-4.02;83.92;100595.19;4822897;29;20576;-86
2021/12/27 11:01:11;;;;;;;31.17;16.33;;;;;;;-4.05;83.98;100589.00;4807574;29;20192;-87
2021/12/27 11:03:39;;;;;;;28.02;15.45;;;;;;;-4.00;83.85;100588.25;4806419;29;20207;-86
2021/12/27 11:06:07;;;;;;;30.73;16.42;;;;;;;-3.92;84.07;100604.06;4806885;29;20176;-86
2021/12/27 11:08:35;;;;;;;27.33;16.38;;;;;;;-3.99;83.99;100603.06;4821453;29;20220;-86
2021/12/27 11:11:00;;;;;;;33.55;16.23;;;;;;;-4.08;84.52;100600.31;4821705;29;20192;-87
2021/12/27 11:13:31;;;;;;;29.45;17.30;;;;;;;-3.98;84.46;100585.63;4807255;29;20256;-87
2021/12/27 11:15:56;;;;;;;31.27;16.42;;;;;;;-4.02;84.89;100579.50;4820780;29;20657;-87
2021/12/27 11:18:23;;;;;;;31.48;17.17;;;;;;;-3.94;84.93;100576.97;4820477;29;20192;-87
2021/12/27 11:20:57;;;;;;;30.50;16.30;;;;;;;-3.90;85.09;100565.72;4805994;29;20196;-85
2021/12/27 11:23:25;;;;;;;29.98;18.33;;;;;;;-3.94;85.18;100570.03;4805533;29;20238;-89
2021/12/27 11:26:13;;;;;;;30.98;17.23;;;;;;;-3.89;85.18;100567.50;4805476;29;20688;-89